Time;durP1;ratioP1;P1;durP2;ratioP2;P2;SDS_P1;SDS_P2;PMS_P1;PMS_P2;Temp;Humidity;BMP_temperature;BMP_pressure;BME280_temperature;BME280_humidity;BME280_pressure;Samples;Min_cycle;Max_cycle;Signal;HPM_P1;HPM_P2
2021/09/06 00:00:19;;;;;;;11.07;7.57;;;19.00;51.60;;;;;;5032453;28;20538;-74
2021/09/06 00:02:45;;;;;;;11.25;8.00;;;18.90;51.60;;;;;;5032229;28;20026;-74
2021/09/06 00:05:12;;;;;;;9.82;6.97;;;18.90;51.80;;;;;;5031828;28;20099;-74
2021/09/06 00:07:39;;;;;;;11.02;7.82;;;18.80;51.90;;;;;;5030906;28;20029;-74
2021/09/06 00:10:32;;;;;;;10.38;7.50;;;18.80;52.20;;;;;;5012876;28;20057;-74
2021/09/06 00:13:00;;;;;;;12.95;7.82;;;18.70;52.20;;;;;;5022373;28;20552;-75
2021/09/06 00:15:26;;;;;;;12.85;7.65;;;18.70;52.20;;;;;;5032084;28;20391;-74
2021/09/06 00:17:52;;;;;;;12.77;8.32;;;18.70;52.20;;;;;;5012887;28;20034;-75
2021/09/06 00:20:18;;;;;;;9.70;7.55;;;18.60;52.50;;;;;;5020535;28;20029;-74
2021/09/06 00:22:44;;;;;;;12.60;8.45;;;18.60;52.60;;;;;;5028881;28;20075;-75
2021/09/06 00:25:10;;;;;;;12.07;8.15;;;18.60;52.80;;;;;;5012150;28;20029;-75
2021/09/06 00:27:36;;;;;;;10.77;7.80;;;18.50;52.70;;;;;;5029337;28;20034;-74
2021/09/06 00:30:02;;;;;;;11.40;8.23;;;18.50;52.70;;;;;;5038938;28;20056;-74
2021/09/06 00:32:28;;;;;;;12.18;7.93;;;18.50;52.80;;;;;;5054188;28;20063;-76
2021/09/06 00:34:54;;;;;;;21.75;9.07;;;18.40;53.00;;;;;;5054027;28;20033;-74
2021/09/06 00:37:19;;;;;;;11.68;8.45;;;18.40;52.90;;;;;;5040210;28;20071;-74
2021/09/06 00:39:45;;;;;;;19.58;8.82;;;18.40;53.00;;;;;;5035146;28;20022;-75
2021/09/06 00:42:11;;;;;;;12.65;7.70;;;18.30;53.00;;;;;;5035447;28;20385;-74
2021/09/06 00:44:37;;;;;;;18.98;8.90;;;18.30;53.00;;;;;;5035220;28;20109;-75
2021/09/06 00:47:03;;;;;;;11.73;8.23;;;18.30;53.20;;;;;;5045834;28;20382;-75
2021/09/06 00:49:29;;;;;;;9.73;7.88;;;18.30;53.20;;;;;;5056024;28;20032;-74
2021/09/06 00:51:55;;;;;;;12.85;8.07;;;18.20;53.50;;;;;;5054143;28;20505;-74
2021/09/06 00:54:21;;;;;;;12.95;8.95;;;18.20;53.30;;;;;;5055307;28;20060;-74
2021/09/06 00:56:49;;;;;;;12.52;7.00;;;18.20;53.60;;;;;;5045889;28;20029;-74
2021/09/06 00:59:15;;;;;;;10.40;7.60;;;18.10;53.70;;;;;;5054585;28;20048;-74
2021/09/06 01:01:41;;;;;;;11.75;8.23;;;18.10;53.80;;;;;;5036408;28;20605;-74
2021/09/06 01:04:07;;;;;;;11.88;7.88;;;18.10;54.10;;;;;;5033767;28;20079;-74
2021/09/06 01:06:33;;;;;;;11.90;7.70;;;18.10;54.70;;;;;;5041143;28;20478;-74
2021/09/06 01:08:59;;;;;;;10.55;7.65;;;18.00;54.00;;;;;;5054679;28;20032;-75
2021/09/06 01:11:24;;;;;;;12.45;7.93;;;18.00;54.10;;;;;;5054821;28;20051;-74
2021/09/06 01:13:51;;;;;;;14.02;8.43;;;18.00;54.40;;;;;;5054468;28;20091;-74
2021/09/06 01:16:18;;;;;;;14.60;8.68;;;18.00;54.80;;;;;;5048839;28;20136;-74
2021/09/06 01:18:44;;;;;;;10.40;7.65;;;17.90;55.00;;;;;;5031308;28;20518;-74
2021/09/06 01:21:11;;;;;;;14.15;8.43;;;18.00;55.20;;;;;;5034172;28;20047;-74
2021/09/06 01:23:37;;;;;;;12.15;8.20;;;17.90;55.20;;;;;;5034163;28;20100;-74
2021/09/06 01:26:03;;;;;;;12.25;9.13;;;17.90;55.60;;;;;;5034820;28;20453;-74
2021/09/06 01:28:29;;;;;;;10.27;7.60;;;17.90;55.80;;;;;;5052375;28;20037;-74
2021/09/06 01:30:55;;;;;;;13.73;7.75;;;17.80;55.70;;;;;;5053898;28;20430;-74
2021/09/06 01:33:21;;;;;;;19.45;7.72;;;17.90;55.90;;;;;;5054328;28;20039;-74
2021/09/06 01:35:47;;;;;;;9.80;6.38;;;17.80;55.80;;;;;;5053441;28;20112;-74
2021/09/06 01:38:13;;;;;;;11.05;7.80;;;17.80;55.70;;;;;;5033649;28;20037;-74
2021/09/06 01:40:39;;;;;;;10.85;7.63;;;17.80;56.10;;;;;;5015874;28;20041;-74
2021/09/06 01:43:05;;;;;;;12.60;8.05;;;17.70;56.10;;;;;;5012372;28;20072;-74
2021/09/06 01:45:31;;;;;;;12.02;8.00;;;17.70;56.60;;;;;;5023545;28;20024;-74
2021/09/06 01:47:56;;;;;;;14.23;7.97;;;17.70;57.00;;;;;;5035601;28;20084;-74
2021/09/06 01:50:24;;;;;;;14.75;8.23;;;17.70;57.00;;;;;;5033569;28;20430;-74
2021/09/06 01:52:50;;;;;;;11.90;7.95;;;17.60;56.80;;;;;;5033530;28;20062;-74
2021/09/06 01:55:16;;;;;;;14.23;9.43;;;17.60;57.30;;;;;;5033474;28;20029;-74
2021/09/06 01:57:42;;;;;;;14.45;8.65;;;17.60;58.30;;;;;;5048151;28;20028;-74
2021/09/06 02:00:08;;;;;;;19.17;11.10;;;17.60;57.80;;;;;;5051911;28;20063;-74
2021/09/06 02:02:34;;;;;;;11.48;8.23;;;17.60;58.50;;;;;;5053255;28;20540;-74
2021/09/06 02:05:00;;;;;;;13.38;8.55;;;17.50;58.10;;;;;;5053510;28;20025;-74
2021/09/06 02:07:25;;;;;;;16.95;8.18;;;17.50;57.80;;;;;;5040283;28;20032;-75
2021/09/06 02:09:51;;;;;;;15.60;9.38;;;17.50;57.50;;;;;;5033237;28;20033;-74
2021/09/06 02:12:17;;;;;;;21.63;10.75;;;17.50;57.60;;;;;;5033130;28;20079;-74
2021/09/06 02:14:43;;;;;;;32.70;12.48;;;17.40;58.10;;;;;;5033089;28;20021;-74
2021/09/06 02:17:09;;;;;;;23.25;10.30;;;17.40;58.40;;;;;;5042322;28;20450;-74
2021/09/06 02:19:34;;;;;;;14.63;8.98;;;17.40;57.70;;;;;;5040719;28;20115;-74
2021/09/06 02:22:00;;;;;;;11.77;8.27;;;17.40;57.60;;;;;;5052884;28;20025;-74
2021/09/06 02:24:26;;;;;;;18.10;9.77;;;17.40;57.30;;;;;;5052420;28;20021;-74
2021/09/06 02:26:53;;;;;;;11.00;8.15;;;17.40;57.40;;;;;;5044806;28;20036;-74
2021/09/06 02:29:18;;;;;;;12.35;6.97;;;17.40;57.20;;;;;;5030537;28;20955;-74
2021/09/06 02:31:44;;;;;;;15.10;7.63;;;17.40;57.10;;;;;;5033451;28;20064;-74
2021/09/06 02:34:10;;;;;;;13.50;7.88;;;17.40;57.20;;;;;;5052199;28;20027;-74
2021/09/06 02:36:36;;;;;;;18.92;8.15;;;17.40;57.20;;;;;;5050896;28;20107;-74
2021/09/06 02:39:04;;;;;;;11.23;7.45;;;17.30;57.20;;;;;;5050323;28;20438;-74
2021/09/06 02:41:30;;;;;;;14.10;8.52;;;17.30;57.20;;;;;;5052591;28;20020;-74
2021/09/06 02:43:56;;;;;;;13.10;8.82;;;17.30;57.20;;;;;;5052474;28;20087;-75
2021/09/06 02:46:22;;;;;;;14.85;7.20;;;17.20;57.40;;;;;;5052027;28;20099;-74
2021/09/06 02:48:47;;;;;;;11.80;7.70;;;17.20;57.30;;;;;;5052305;28;20060;-74
2021/09/06 02:51:13;;;;;;;12.13;8.13;;;17.20;57.40;;;;;;5052719;28;20132;-74
2021/09/06 02:53:39;;;;;;;12.63;7.82;;;17.20;57.50;;;;;;5034767;28;20029;-74
2021/09/06 02:56:05;;;;;;;14.18;8.70;;;17.10;57.60;;;;;;5051547;28;20020;-75
2021/09/06 02:58:31;;;;;;;13.73;7.80;;;17.10;57.40;;;;;;5034208;28;20021;-74
2021/09/06 03:00:57;;;;;;;11.63;7.95;;;17.10;57.40;;;;;;5053166;28;20482;-74
2021/09/06 03:03:22;;;;;;;13.07;8.13;;;17.10;57.50;;;;;;5052142;28;20520;-74
2021/09/06 03:05:49;;;;;;;15.55;9.27;;;17.00;57.40;;;;;;5051821;28;20021;-74
2021/09/06 03:08:15;;;;;;;11.90;7.40;;;17.00;57.70;;;;;;5053066;28;20033;-74
2021/09/06 03:10:41;;;;;;;15.75;8.02;;;17.00;57.50;;;;;;5052487;28;20419;-74
2021/09/06 03:13:06;;;;;;;13.00;8.75;;;16.90;57.40;;;;;;5052633;28;20059;-74
2021/09/06 03:15:32;;;;;;;13.35;8.13;;;16.90;57.40;;;;;;5052949;28;20102;-74
2021/09/06 03:17:58;;;;;;;12.95;8.63;;;16.90;57.40;;;;;;5052917;28;20021;-74
2021/09/06 03:20:24;;;;;;;13.73;7.35;;;16.90;57.50;;;;;;5051022;28;20028;-74
2021/09/06 03:22:50;;;;;;;11.43;8.07;;;16.80;57.50;;;;;;5052353;28;20025;-74
2021/09/06 03:25:16;;;;;;;12.90;8.38;;;16.80;57.70;;;;;;5052553;28;20029;-74
2021/09/06 03:27:41;;;;;;;10.93;7.72;;;16.80;57.70;;;;;;5052754;28;20028;-74
2021/09/06 03:30:08;;;;;;;13.60;8.77;;;16.80;57.80;;;;;;5052374;28;20045;-74
2021/09/06 03:32:34;;;;;;;13.90;9.18;;;16.80;58.00;;;;;;5052131;28;20059;-74
2021/09/06 03:35:00;;;;;;;14.82;8.35;;;16.70;58.00;;;;;;5036542;28;20032;-74
2021/09/06 03:37:26;;;;;;;18.48;9.65;;;16.70;58.30;;;;;;5052597;28;20489;-74
2021/09/06 03:39:52;;;;;;;14.73;8.27;;;16.70;58.20;;;;;;5052474;28;20029;-74
2021/09/06 03:42:18;;;;;;;11.70;8.20;;;16.70;58.20;;;;;;5052648;28;20462;-74
2021/09/06 03:44:43;;;;;;;15.93;8.68;;;16.70;58.20;;;;;;5052672;28;20354;-74
2021/09/06 03:47:09;;;;;;;17.23;9.65;;;16.70;58.40;;;;;;5052590;28;20033;-74
2021/09/06 03:49:35;;;;;;;12.38;8.98;;;16.60;58.60;;;;;;5052565;28;20501;-74
2021/09/06 03:52:01;;;;;;;14.27;9.25;;;16.60;58.40;;;;;;5052382;28;20032;-74
2021/09/06 03:54:27;;;;;;;13.63;8.80;;;16.60;58.40;;;;;;5052574;28;20025;-74
2021/09/06 03:56:52;;;;;;;11.82;8.52;;;16.60;58.40;;;;;;5052415;28;20402;-74
2021/09/06 03:59:19;;;;;;;17.60;8.80;;;16.50;58.40;;;;;;5052497;28;20389;-74
2021/09/06 04:01:45;;;;;;;15.35;8.07;;;16.50;58.30;;;;;;5052339;28;20025;-74
2021/09/06 04:04:11;;;;;;;12.90;9.55;;;16.50;58.40;;;;;;5034529;28;20035;-74
2021/09/06 04:06:37;;;;;;;13.63;8.93;;;16.50;58.40;;;;;;5053683;28;20096;-74
2021/09/06 04:09:03;;;;;;;16.10;10.05;;;16.40;58.50;;;;;;5056217;28;20029;-74
2021/09/06 04:11:29;;;;;;;14.15;9.13;;;16.40;58.50;;;;;;5056207;28;20023;-74
2021/09/06 04:13:54;;;;;;;11.38;8.13;;;16.40;58.50;;;;;;5056132;28;20025;-74
2021/09/06 04:16:20;;;;;;;15.30;9.63;;;16.40;58.50;;;;;;5038183;28;20029;-74
2021/09/06 04:18:46;;;;;;;17.33;9.82;;;16.40;58.90;;;;;;5055876;28;20070;-74
2021/09/06 04:21:12;;;;;;;14.43;9.82;;;16.30;58.90;;;;;;5055978;28;20040;-74
2021/09/06 04:23:39;;;;;;;14.13;9.55;;;16.30;58.90;;;;;;5055639;28;20036;-74
2021/09/06 04:26:05;;;;;;;17.30;9.10;;;16.30;59.00;;;;;;5055390;28;20017;-74
2021/09/06 04:28:31;;;;;;;16.83;10.25;;;16.30;59.00;;;;;;5055817;28;20025;-74
2021/09/06 04:30:57;;;;;;;16.33;9.50;;;16.30;59.00;;;;;;5055654;28;20048;-74
2021/09/06 04:33:24;;;;;;;16.35;9.27;;;16.30;59.20;;;;;;5055806;28;20025;-74
2021/09/06 04:35:51;;;;;;;16.02;9.75;;;16.20;59.10;;;;;;5055817;28;20025;-74
2021/09/06 04:38:17;;;;;;;14.85;9.63;;;16.20;59.40;;;;;;5037892;28;20386;-74
2021/09/06 04:40:43;;;;;;;14.90;10.15;;;16.20;59.50;;;;;;5055477;28;20025;-74
2021/09/06 04:43:09;;;;;;;18.30;10.40;;;16.20;59.40;;;;;;5054392;28;20090;-75
2021/09/06 04:45:34;;;;;;;15.13;9.88;;;16.20;59.50;;;;;;5055673;28;20036;-74
2021/09/06 04:48:00;;;;;;;15.98;8.57;;;16.20;59.50;;;;;;5055607;28;20528;-74
2021/09/06 04:50:27;;;;;;;16.77;9.65;;;16.10;59.40;;;;;;5055287;28;20053;-74
2021/09/06 04:52:55;;;;;;;17.52;10.30;;;16.10;59.40;;;;;;5035574;28;20029;-74
2021/09/06 04:55:21;;;;;;;16.60;9.90;;;16.10;59.50;;;;;;5035524;28;20025;-75
2021/09/06 04:57:47;;;;;;;14.02;9.13;;;16.10;59.60;;;;;;5017574;28;20120;-74
2021/09/06 05:00:13;;;;;;;19.27;9.98;;;16.20;59.60;;;;;;5017660;28;20493;-74
2021/09/06 05:02:39;;;;;;;14.15;9.30;;;16.20;60.00;;;;;;5034104;28;20031;-74
2021/09/06 05:05:06;;;;;;;21.30;9.80;;;16.20;59.90;;;;;;5032123;28;20464;-75
2021/09/06 05:07:32;;;;;;;16.05;9.57;;;16.20;60.10;;;;;;5075157;28;20025;-74
2021/09/06 05:09:57;;;;;;;18.58;10.38;;;16.20;60.10;;;;;;5057640;28;20035;-75
2021/09/06 05:12:23;;;;;;;20.88;9.40;;;16.30;60.30;;;;;;5055011;28;20437;-74
2021/09/06 05:14:49;;;;;;;17.90;11.18;;;16.30;60.20;;;;;;5055096;28;20382;-75
2021/09/06 05:17:15;;;;;;;22.20;10.10;;;16.30;60.70;;;;;;5054624;28;20052;-75
2021/09/06 05:19:40;;;;;;;26.25;11.27;;;16.40;60.60;;;;;;5058613;28;20032;-74
2021/09/06 05:22:07;;;;;;;19.70;10.98;;;16.40;60.60;;;;;;5060110;28;20051;-74
2021/09/06 05:24:33;;;;;;;17.90;10.48;;;16.50;60.80;;;;;;5053626;28;20109;-75
2021/09/06 05:26:59;;;;;;;19.20;11.35;;;16.50;60.70;;;;;;5054893;28;20103;-74
2021/09/06 05:29:25;;;;;;;17.23;10.63;;;16.60;60.70;;;;;;5054648;28;20072;-74
2021/09/06 05:31:51;;;;;;;19.02;11.00;;;16.60;60.50;;;;;;5048174;28;20059;-75
2021/09/06 05:34:16;;;;;;;19.00;11.25;;;16.70;60.40;;;;;;5054442;28;20052;-75
2021/09/06 05:36:42;;;;;;;19.75;10.38;;;16.70;60.40;;;;;;5036601;28;20478;-74
2021/09/06 05:39:08;;;;;;;22.40;11.18;;;16.80;60.40;;;;;;5054135;28;20178;-75
2021/09/06 05:41:34;;;;;;;19.27;10.98;;;16.80;61.10;;;;;;5054312;28;20013;-74
2021/09/06 05:43:59;;;;;;;18.92;10.38;;;16.90;60.10;;;;;;5054410;28;20493;-75
2021/09/06 05:46:25;;;;;;;20.52;11.45;;;16.90;59.80;;;;;;5054179;28;20029;-75
2021/09/06 05:48:51;;;;;;;17.05;10.68;;;17.00;59.70;;;;;;5054355;28;20040;-75
2021/09/06 05:51:17;;;;;;;18.52;10.93;;;17.00;59.40;;;;;;5054200;28;20470;-74
2021/09/06 05:53:42;;;;;;;24.77;12.40;;;17.10;59.30;;;;;;5054090;28;20111;-74
2021/09/06 05:56:08;;;;;;;20.50;11.95;;;17.10;58.70;;;;;;5054012;28;20033;-74
2021/09/06 05:58:34;;;;;;;23.33;11.70;;;17.20;58.20;;;;;;5054131;28;20029;-74
2021/09/06 06:01:00;;;;;;;20.50;11.48;;;17.30;58.00;;;;;;5039829;28;20105;-74
2021/09/06 06:03:26;;;;;;;22.40;11.73;;;17.40;57.90;;;;;;5053313;28;20017;-74
2021/09/06 06:05:51;;;;;;;21.58;10.75;;;17.40;57.80;;;;;;5053267;28;20031;-75
2021/09/06 06:08:17;;;;;;;19.73;11.07;;;17.50;57.60;;;;;;5053662;28;20017;-75
2021/09/06 06:10:43;;;;;;;33.65;12.20;;;17.60;57.50;;;;;;5054075;28;20449;-75
2021/09/06 06:13:09;;;;;;;20.42;11.95;;;17.60;57.20;;;;;;5053937;28;20327;-75
2021/09/06 06:15:35;;;;;;;23.05;11.10;;;17.70;56.90;;;;;;5054015;28;20025;-74
2021/09/06 06:18:00;;;;;;;20.70;10.40;;;17.70;56.80;;;;;;5053914;28;20474;-75
2021/09/06 06:20:26;;;;;;;20.65;10.82;;;17.80;56.80;;;;;;5053429;28;20048;-75
2021/09/06 06:22:52;;;;;;;20.35;10.35;;;17.90;56.70;;;;;;5052543;28;20044;-75
2021/09/06 06:25:18;;;;;;;19.85;9.48;;;17.90;56.40;;;;;;5053842;28;20470;-74
2021/09/06 06:27:43;;;;;;;16.65;10.23;;;18.00;56.50;;;;;;5053761;28;20025;-75
2021/09/06 06:30:10;;;;;;;25.88;11.27;;;18.10;56.30;;;;;;5053318;28;20080;-75
2021/09/06 06:32:36;;;;;;;20.75;10.90;;;18.10;55.70;;;;;;5053071;28;20020;-75
2021/09/06 06:35:01;;;;;;;23.33;12.13;;;18.20;55.50;;;;;;5052741;28;20386;-75
2021/09/06 06:37:27;;;;;;;22.30;10.32;;;18.30;55.20;;;;;;5053547;28;20079;-74
2021/09/06 06:39:53;;;;;;;22.15;10.73;;;18.30;55.00;;;;;;5053483;28;20033;-75
2021/09/06 06:42:19;;;;;;;21.33;11.07;;;18.40;55.00;;;;;;5053480;28;20036;-75
2021/09/06 06:44:45;;;;;;;19.17;9.85;;;18.40;54.70;;;;;;5035502;28;20074;-74
2021/09/06 06:47:10;;;;;;;19.65;10.38;;;18.50;54.70;;;;;;5053039;28;20040;-75
2021/09/06 06:49:36;;;;;;;21.73;8.82;;;18.60;54.70;;;;;;5053378;28;20020;-75
2021/09/06 06:52:02;;;;;;;15.20;9.00;;;18.60;54.60;;;;;;5035640;28;20029;-75
2021/09/06 06:54:28;;;;;;;21.20;9.63;;;18.70;54.40;;;;;;5035357;28;20029;-75
2021/09/06 06:56:54;;;;;;;17.75;8.73;;;18.80;54.80;;;;;;5053191;28;20036;-75
2021/09/06 06:59:20;;;;;;;16.58;9.48;;;18.80;53.90;;;;;;5052707;28;20021;-75
2021/09/06 07:01:45;;;;;;;17.08;9.50;;;18.80;53.70;;;;;;5051229;28;20040;-75
2021/09/06 07:04:11;;;;;;;18.08;9.73;;;18.90;53.70;;;;;;5052185;28;20039;-74
2021/09/06 07:06:37;;;;;;;19.67;10.55;;;19.00;53.60;;;;;;5052863;28;20021;-75
2021/09/06 07:09:03;;;;;;;16.20;9.25;;;19.00;53.20;;;;;;5051553;28;20025;-75
2021/09/06 07:11:29;;;;;;;16.17;8.63;;;19.00;53.10;;;;;;5053085;28;20033;-75
2021/09/06 07:13:54;;;;;;;22.58;9.65;;;19.10;53.10;;;;;;5051686;28;20493;-75
2021/09/06 07:16:20;;;;;;;25.88;10.65;;;19.20;53.10;;;;;;5052882;28;20029;-74
2021/09/06 07:18:46;;;;;;;19.80;10.07;;;19.20;52.60;;;;;;5052922;28;20044;-75
2021/09/06 07:21:12;;;;;;;21.95;10.23;;;19.30;52.50;;;;;;5052906;28;20041;-75
2021/09/06 07:23:38;;;;;;;17.58;10.30;;;19.30;52.60;;;;;;5051608;28;20056;-74
2021/09/06 07:26:03;;;;;;;18.13;10.07;;;19.40;52.60;;;;;;5052829;28;20032;-75
2021/09/06 07:28:29;;;;;;;17.30;9.27;;;19.40;52.40;;;;;;5052848;28;20028;-75
2021/09/06 07:30:55;;;;;;;24.60;10.45;;;19.50;52.10;;;;;;5052721;28;20064;-75
2021/09/06 07:33:21;;;;;;;22.02;9.57;;;19.60;52.10;;;;;;5052664;28;20079;-74
2021/09/06 07:35:46;;;;;;;18.67;10.27;;;19.60;52.10;;;;;;5052498;28;20100;-75
2021/09/06 07:38:12;;;;;;;21.83;10.00;;;19.60;51.80;;;;;;5051387;28;20021;-75
2021/09/06 07:40:38;;;;;;;17.73;9.95;;;19.70;51.70;;;;;;5052801;28;20055;-75
2021/09/06 07:43:04;;;;;;;16.27;9.82;;;19.70;51.70;;;;;;5056709;28;20028;-75
2021/09/06 07:45:30;;;;;;;19.85;10.38;;;19.80;51.60;;;;;;5056805;28;20017;-75
2021/09/06 07:47:56;;;;;;;19.77;10.05;;;19.80;51.20;;;;;;5055469;28;20057;-75
2021/09/06 07:50:22;;;;;;;19.17;9.07;;;19.90;51.30;;;;;;5056754;28;20025;-75
2021/09/06 07:52:47;;;;;;;16.38;8.95;;;20.00;51.40;;;;;;5056567;28;20036;-75
2021/09/06 07:55:14;;;;;;;17.65;9.50;;;20.00;51.30;;;;;;5056584;28;20032;-75
2021/09/06 07:57:39;;;;;;;22.67;10.07;;;20.10;51.30;;;;;;5055973;28;20024;-74
2021/09/06 08:00:06;;;;;;;24.75;9.77;;;20.10;50.70;;;;;;5056711;28;20029;-75
2021/09/06 08:02:48;;;;;;;19.30;9.20;;;20.20;50.60;;;;;;5056282;28;20521;-75
2021/09/06 08:05:19;;;;;;;15.98;8.93;;;20.20;50.60;;;;;;5038554;28;20028;-74
2021/09/06 08:07:45;;;;;;;19.40;8.90;;;20.30;50.30;;;;;;5056112;28;20381;-74
2021/09/06 08:10:10;;;;;;;16.48;7.40;;;20.30;50.40;;;;;;5056376;28;20021;-74
2021/09/06 08:12:37;;;;;;;18.90;8.57;;;20.40;50.60;;;;;;5056255;28;20482;-75
2021/09/06 08:15:05;;;;;;;14.50;7.75;;;20.50;50.10;;;;;;5038164;28;20548;-75
2021/09/06 08:17:33;;;;;;;17.92;9.02;;;20.50;50.10;;;;;;5038125;28;20036;-75
2021/09/06 08:19:59;;;;;;;20.48;9.07;;;20.60;49.70;;;;;;5055676;28;20029;-75
2021/09/06 08:22:25;;;;;;;14.35;8.23;;;20.60;49.50;;;;;;5056137;28;20055;-74
2021/09/06 08:24:51;;;;;;;16.85;8.90;;;20.70;49.60;;;;;;5056398;28;20045;-74
2021/09/06 08:27:22;;;;;;;12.82;8.40;;;20.70;49.40;;;;;;5038328;28;20053;-75
2021/09/06 08:29:48;;;;;;;17.27;9.13;;;20.80;49.30;;;;;;5041492;28;20087;-74
2021/09/06 08:32:14;;;;;;;26.17;8.55;;;20.80;49.50;;;;;;5055859;28;20100;-74
2021/09/06 08:34:40;;;;;;;13.20;7.25;;;20.90;49.30;;;;;;5054127;28;20117;-74
2021/09/06 08:37:06;;;;;;;14.90;7.57;;;21.00;49.50;;;;;;5055772;28;20032;-74
2021/09/06 08:39:32;;;;;;;14.30;8.23;;;21.00;49.50;;;;;;5055769;28;20029;-74
2021/09/06 08:42:00;;;;;;;19.05;8.82;;;21.10;49.40;;;;;;5055812;28;20021;-75
2021/09/06 08:44:27;;;;;;;16.88;8.88;;;21.20;48.90;;;;;;5055171;28;20033;-74
2021/09/06 08:46:54;;;;;;;19.92;9.52;;;21.20;48.90;;;;;;5055194;28;20056;-75
2021/09/06 08:49:21;;;;;;;17.33;9.82;;;21.30;48.50;;;;;;5054887;28;20025;-75
2021/09/06 08:51:47;;;;;;;28.02;9.57;;;21.30;48.60;;;;;;5055224;28;20063;-75
2021/09/06 08:54:13;;;;;;;16.75;9.05;;;21.40;48.80;;;;;;5053548;28;20082;-76
2021/09/06 08:56:39;;;;;;;17.42;9.38;;;21.40;49.40;;;;;;5036726;28;20093;-75
2021/09/06 08:59:06;;;;;;;17.70;9.90;;;21.50;48.50;;;;;;5053576;28;20065;-75
2021/09/06 09:01:39;;;;;;;17.35;9.20;;;21.60;48.20;;;;;;5038196;28;20505;-75
2021/09/06 09:04:19;;;;;;;18.20;8.97;;;21.60;48.10;;;;;;5053302;28;20055;-75
2021/09/06 09:06:54;;;;;;;18.80;9.10;;;21.70;48.20;;;;;;5053069;28;20251;-75
2021/09/06 09:09:36;;;;;;;16.80;10.13;;;21.80;48.20;;;;;;5055277;28;20028;-75
2021/09/06 09:12:13;;;;;;;21.40;9.43;;;21.80;48.10;;;;;;5055112;28;20044;-76
2021/09/06 09:14:46;;;;;;;20.65;8.90;;;21.90;48.30;;;;;;5054995;28;20025;-76
2021/09/06 09:17:12;;;;;;;29.55;9.18;;;22.00;48.10;;;;;;5055521;28;20048;-75
2021/09/06 09:19:39;;;;;;;16.95;10.43;;;22.10;48.10;;;;;;5055267;28;20433;-75
2021/09/06 09:22:09;;;;;;;27.17;10.18;;;22.10;47.50;;;;;;5055150;28;20059;-75
2021/09/06 09:24:38;;;;;;;25.63;10.20;;;22.20;47.50;;;;;;5054886;28;20049;-76
2021/09/06 09:27:07;;;;;;;23.85;10.27;;;22.20;47.90;;;;;;5054392;28;20069;-76
2021/09/06 09:29:33;;;;;;;28.10;11.13;;;22.30;47.90;;;;;;5054606;28;20033;-76
2021/09/06 09:32:06;;;;;;;19.38;10.80;;;22.40;47.50;;;;;;5054870;28;20027;-75
2021/09/06 09:34:40;;;;;;;20.58;11.63;;;22.50;47.30;;;;;;5054088;28;20036;-76
2021/09/06 09:37:07;;;;;;;30.50;12.80;;;22.50;47.10;;;;;;5054013;28;20017;-76
2021/09/06 09:39:34;;;;;;;34.10;13.57;;;22.60;46.90;;;;;;5049630;28;20035;-75
2021/09/06 09:42:09;;;;;;;19.30;11.48;;;22.60;47.10;;;;;;5043732;28;20069;-75
2021/09/06 09:44:47;;;;;;;29.35;14.77;;;22.70;46.80;;;;;;5061911;28;20024;-76
2021/09/06 09:47:14;;;;;;;25.20;12.40;;;22.80;46.20;;;;;;5054307;28;20013;-75
2021/09/06 09:49:42;;;;;;;29.90;10.93;;;22.80;46.00;;;;;;5054456;28;20027;-75
2021/09/06 09:52:08;;;;;;;21.10;10.68;;;22.90;46.10;;;;;;5054269;28;20028;-75
2021/09/06 09:54:34;;;;;;;24.27;11.35;;;22.90;45.90;;;;;;5036319;28;20508;-74
2021/09/06 09:57:00;;;;;;;25.83;11.73;;;23.00;45.90;;;;;;5054073;28;20033;-74
2021/09/06 09:59:26;;;;;;;21.50;11.32;;;23.00;45.70;;;;;;5053970;28;20027;-75
2021/09/06 10:01:54;;;;;;;23.52;10.48;;;23.10;45.30;;;;;;5054099;28;20028;-75
2021/09/06 10:04:26;;;;;;;22.55;11.10;;;23.20;45.60;;;;;;5035786;28;20029;-75
2021/09/06 10:06:54;;;;;;;21.17;11.32;;;23.30;45.20;;;;;;5036109;28;20076;-74
2021/09/06 10:09:20;;;;;;;20.95;10.77;;;23.30;45.20;;;;;;5054090;28;20021;-75
2021/09/06 10:11:48;;;;;;;18.02;10.63;;;23.40;45.30;;;;;;5053885;28;20025;-75
2021/09/06 10:14:26;;;;;;;15.75;10.57;;;23.50;45.50;;;;;;5042829;28;20024;-75
2021/09/06 10:17:06;;;;;;;20.05;10.93;;;23.50;45.50;;;;;;5049900;28;20044;-75
2021/09/06 10:19:39;;;;;;;18.00;10.02;;;23.60;45.20;;;;;;5048706;28;20029;-75
2021/09/06 10:22:05;;;;;;;16.63;9.45;;;23.70;45.30;;;;;;5053707;28;20075;-75
2021/09/06 10:24:31;;;;;;;21.45;9.82;;;23.70;45.20;;;;;;5053709;28;20430;-75
2021/09/06 10:27:06;;;;;;;17.45;9.90;;;23.80;45.30;;;;;;5053697;28;20055;-74
2021/09/06 10:29:33;;;;;;;18.35;9.15;;;23.90;45.20;;;;;;5035488;28;20132;-74
2021/09/06 10:32:04;;;;;;;17.80;9.50;;;24.00;45.00;;;;;;5051226;28;20470;-75
2021/09/06 10:34:30;;;;;;;18.25;10.80;;;24.00;44.50;;;;;;5044193;28;20033;-75
2021/09/06 10:37:08;;;;;;;18.35;10.40;;;24.10;44.10;;;;;;5053435;28;20094;-74
2021/09/06 10:39:45;;;;;;;20.52;10.15;;;24.10;43.50;;;;;;5052229;28;20048;-74
2021/09/06 10:42:11;;;;;;;21.70;9.70;;;24.20;43.50;;;;;;5049048;28;20375;-74
2021/09/06 10:44:38;;;;;;;16.67;9.73;;;24.20;43.70;;;;;;5051744;28;20024;-74
2021/09/06 10:47:11;;;;;;;19.08;11.02;;;24.30;43.80;;;;;;5034535;28;20021;-74
2021/09/06 10:49:42;;;;;;;14.70;10.02;;;24.40;42.80;;;;;;5052374;28;20071;-75
2021/09/06 10:52:09;;;;;;;19.02;12.25;;;24.40;43.40;;;;;;5059175;28;20025;-74
2021/09/06 10:54:36;;;;;;;25.60;10.90;;;24.40;42.80;;;;;;5039807;28;20017;-74
2021/09/06 10:57:05;;;;;;;22.83;10.57;;;24.50;43.10;;;;;;5043847;28;20033;-76
2021/09/06 10:59:30;;;;;;;16.98;10.05;;;24.60;42.90;;;;;;5049546;28;20052;-75
2021/09/06 11:01:58;;;;;;;16.40;9.32;;;24.60;42.40;;;;;;5034251;28;20489;-75
2021/09/06 11:04:27;;;;;;;14.90;8.27;;;24.70;42.40;;;;;;5052908;28;20501;-75
2021/09/06 11:07:06;;;;;;;16.23;8.30;;;24.80;42.70;;;;;;5056865;28;20025;-76
2021/09/06 11:09:34;;;;;;;16.17;9.38;;;24.80;42.80;;;;;;5054160;28;20047;-75
2021/09/06 11:12:11;;;;;;;14.95;9.52;;;24.90;42.60;;;;;;5052825;28;20021;-75
2021/09/06 11:14:43;;;;;;;18.77;9.63;;;24.90;42.40;;;;;;5052984;28;20024;-75
2021/09/06 11:17:24;;;;;;;16.02;9.95;;;25.00;41.80;;;;;;5052163;28;20086;-75
2021/09/06 11:19:51;;;;;;;12.65;8.98;;;25.00;42.30;;;;;;5052854;28;20032;-75
2021/09/06 11:22:19;;;;;;;21.65;10.85;;;25.00;41.90;;;;;;5052874;28;20029;-75
2021/09/06 11:24:45;;;;;;;20.00;10.73;;;25.10;41.80;;;;;;5052906;28;20099;-75
2021/09/06 11:27:34;;;;;;;19.05;10.63;;;25.10;41.60;;;;;;5050474;28;20028;-75
2021/09/06 11:30:01;;;;;;;15.15;9.13;;;25.20;41.80;;;;;;5052253;28;20045;-75
2021/09/06 11:32:29;;;;;;;13.20;9.00;;;25.20;41.90;;;;;;5034647;28;20363;-75
2021/09/06 11:35:04;;;;;;;11.85;8.18;;;25.30;42.00;;;;;;5052307;28;20033;-75
2021/09/06 11:37:30;;;;;;;14.93;8.45;;;25.30;41.70;;;;;;5052168;28;20033;-75
2021/09/06 11:39:56;;;;;;;14.13;8.40;;;25.30;41.30;;;;;;5052116;28;20021;-75
2021/09/06 11:42:22;;;;;;;11.85;8.32;;;25.30;41.10;;;;;;5052667;28;20440;-75
2021/09/06 11:44:48;;;;;;;12.98;8.27;;;25.40;41.30;;;;;;5052322;28;20100;-75
2021/09/06 11:47:15;;;;;;;20.00;9.15;;;25.50;41.70;;;;;;5051933;28;20071;-76
2021/09/06 11:49:51;;;;;;;16.73;8.98;;;25.50;41.90;;;;;;5052498;28;20524;-75
2021/09/06 11:52:18;;;;;;;14.15;9.50;;;25.60;42.10;;;;;;5051907;28;20078;-76
2021/09/06 11:54:45;;;;;;;13.07;8.80;;;25.60;41.40;;;;;;5016066;28;20479;-76
2021/09/06 11:57:22;;;;;;;22.30;10.77;;;25.70;41.30;;;;;;5049086;28;20690;-76
2021/09/06 11:59:52;;;;;;;14.27;9.18;;;25.70;40.90;;;;;;5037472;28;20021;-76
2021/09/06 12:02:18;;;;;;;12.15;8.27;;;25.70;40.60;;;;;;5047963;28;20104;-76
2021/09/06 12:04:43;;;;;;;15.32;8.20;;;25.80;40.80;;;;;;5032644;28;20108;-76
2021/09/06 12:07:16;;;;;;;16.27;9.60;;;25.80;40.50;;;;;;5050774;28;20048;-75
2021/09/06 12:09:42;;;;;;;11.63;7.78;;;25.90;40.20;;;;;;5051403;28;20370;-75
2021/09/06 12:12:23;;;;;;;15.43;8.20;;;25.90;40.70;;;;;;5050369;28;20033;-76
2021/09/06 12:14:50;;;;;;;14.80;8.65;;;25.90;40.60;;;;;;5050875;28;20116;-76
2021/09/06 12:17:17;;;;;;;22.88;9.15;;;26.00;40.00;;;;;;5051332;28;20025;-75
2021/09/06 12:19:51;;;;;;;12.40;7.47;;;26.10;40.00;;;;;;5051229;28;20409;-76
2021/09/06 12:22:20;;;;;;;11.73;7.57;;;26.10;39.80;;;;;;5051392;28;20040;-75
2021/09/06 12:24:48;;;;;;;9.93;6.95;;;26.20;39.90;;;;;;5033378;28;20449;-76
2021/09/06 12:27:16;;;;;;;12.13;7.13;;;26.20;40.10;;;;;;5052074;28;20021;-75
2021/09/06 12:29:43;;;;;;;18.13;8.15;;;26.30;40.10;;;;;;5054867;28;20421;-74
2021/09/06 12:32:13;;;;;;;14.50;8.77;;;26.30;39.30;;;;;;5054978;28;20033;-75